Terminal Aerodrome Forecast
Issued by NWS

Home | Current Version | Previous Version | Text Only | Print | Product List | Glossary On
Versions: 1 2 3 4 5 6 7 8 9 10 11 12 13 14
988
FTUS42 KMLB 191442 AAA
TAFTIX
TAF AMD
KTIX 191442Z 1915/2012 33004KT P6SM SCT015
      TEMPO 1915/1917 BKN015
     FM191800 05007KT P6SM FEW015 SCT250
     FM200000 VRB03KT P6SM SCT250=

USA.gov is the U.S. government's official web portal to all federal, state and local government web resources and services.